Sangerville, Maine
Current Conditions -  °F | °C
As of 6:53 AM on Sunday 25 Jan 2015 (Local Time) from KBGR Reporting Station
Broken Clouds Broken Clouds  
Wind Chill: 23°   Ceiling: 3400
Heat Index: 30°   Visibility: 10mi
Dew Point: 23°   Wind: 7mph
Humidity: 75%   Direction: 250°WSW
Pressure: 29.29"   Gusts: NA
Location:  45.16°N, 69.36°W
Report Text: KBGR 251153Z 25006KT 10SM BKN034 BKN090 M01/M05 A2929 RMK AO2 SLP921 4/004 70014 T10111050 11011 21028 53037
Loading
Personal Weather Stations






























Interactive Weather Map New forecast layout! Learn more

10-Day Weather Forecast

Advertisements
Track Severe Weather on mobile